Time;durP1;ratioP1;P1;durP2;ratioP2;P2;SDS_P1;SDS_P2;PMS_P1;PMS_P2;Temp;Humidity;BMP_temperature;BMP_pressure;BME280_temperature;BME280_humidity;BME280_pressure;Samples;Min_cycle;Max_cycle;Signal;HPM_P1;HPM_P2
2023/07/17 03:02:46;;;;;;;1.40;1.30;;;27.30;46.60;;;;;;4884792;28;45885;-82
2023/07/17 03:05:11;;;;;;;1.55;1.30;;;27.30;46.70;;;;;;4884626;28;44904;-81
2023/07/17 03:07:41;;;;;;;2.65;1.50;;;27.30;46.70;;;;;;4894258;28;45600;-81
2023/07/17 03:10:07;;;;;;;1.60;1.20;;;27.30;46.70;;;;;;4879016;28;45587;-83
2023/07/17 03:12:34;;;;;;;2.42;1.40;;;27.30;46.70;;;;;;4835474;28;46823;-82
2023/07/17 03:14:59;;;;;;;1.73;1.52;;;27.30;46.70;;;;;;4854564;28;45207;-80
2023/07/17 03:17:25;;;;;;;1.80;1.33;;;27.30;46.70;;;;;;4859570;28;45243;-82
2023/07/17 03:19:51;;;;;;;1.55;1.40;;;27.30;46.60;;;;;;4850986;28;45085;-81
2023/07/17 03:22:17;;;;;;;1.50;1.23;;;27.30;46.70;;;;;;4865113;28;45643;-82
2023/07/17 03:24:42;;;;;;;1.45;1.30;;;27.30;46.70;;;;;;4864021;28;45244;-81
2023/07/17 03:27:08;;;;;;;1.10;1.00;;;27.30;46.70;;;;;;4878772;28;45592;-83
2023/07/17 03:29:33;;;;;;;1.57;1.20;;;27.30;46.70;;;;;;4865817;28;45166;-80
2023/07/17 03:31:59;;;;;;;1.45;1.30;;;27.30;46.70;;;;;;4849806;28;45368;-81
2023/07/17 03:34:24;;;;;;;1.95;1.20;;;27.30;46.70;;;;;;4859845;28;46029;-83
2023/07/17 03:36:50;;;;;;;1.60;1.30;;;27.30;46.70;;;;;;4853096;28;46383;-80
2023/07/17 03:39:16;;;;;;;2.13;1.50;;;27.30;46.70;;;;;;4856439;28;45342;-80
2023/07/17 03:41:41;;;;;;;1.90;1.60;;;27.30;46.70;;;;;;4882956;28;45956;-83
2023/07/17 03:44:07;;;;;;;2.03;1.43;;;27.30;46.70;;;;;;4863019;28;45608;-82
2023/07/17 03:46:32;;;;;;;1.83;1.30;;;27.30;46.70;;;;;;4834292;28;45259;-81
2023/07/17 03:48:58;;;;;;;1.58;1.27;;;27.30;46.70;;;;;;4869550;28;45156;-80
2023/07/17 03:51:23;;;;;;;1.65;1.50;;;27.30;46.70;;;;;;4868869;28;45540;-82
2023/07/17 03:53:50;;;;;;;1.63;1.40;;;27.30;47.30;;;;;;4871488;28;45083;-80
2023/07/17 03:56:15;;;;;;;1.67;1.30;;;27.30;46.70;;;;;;4883850;28;45126;-82
2023/07/17 03:58:41;;;;;;;1.80;1.50;;;27.30;46.70;;;;;;4882577;28;45788;-80
2023/07/17 04:01:06;;;;;;;1.45;1.35;;;27.30;46.80;;;;;;4852165;28;46182;-81
2023/07/17 04:03:32;;;;;;;2.03;1.42;;;27.30;46.70;;;;;;4848773;28;45491;-80
2023/07/17 04:05:58;;;;;;;1.63;1.30;;;27.30;46.70;;;;;;4866770;28;45135;-80
2023/07/17 04:08:23;;;;;;;1.87;1.30;;;27.30;46.70;;;;;;4832928;28;46294;-80
2023/07/17 04:10:49;;;;;;;1.80;1.33;;;27.30;46.70;;;;;;4850079;28;47104;-82
2023/07/17 04:13:14;;;;;;;1.63;1.40;;;27.30;46.70;;;;;;4823194;28;45052;-83
2023/07/17 04:15:41;;;;;;;1.90;1.45;;;27.30;46.70;;;;;;4868600;28;45522;-82
2023/07/17 04:18:06;;;;;;;1.90;1.40;;;27.30;46.70;;;;;;4821710;29;45514;-81
2023/07/17 04:20:32;;;;;;;1.50;1.23;;;27.30;46.70;;;;;;4864857;28;45218;-80
2023/07/17 04:22:58;;;;;;;2.37;1.60;;;27.30;46.70;;;;;;4857908;28;45278;-81
2023/07/17 04:25:24;;;;;;;1.47;1.20;;;27.30;46.80;;;;;;4884777;28;45346;-81
2023/07/17 04:27:49;;;;;;;1.90;1.47;;;27.30;46.80;;;;;;4858528;28;45517;-80
2023/07/17 04:30:15;;;;;;;2.57;1.47;;;27.20;46.70;;;;;;4876959;28;45331;-81
2023/07/17 04:32:40;;;;;;;1.60;1.30;;;27.30;46.80;;;;;;4886576;28;45235;-80
2023/07/17 04:35:06;;;;;;;1.67;1.27;;;27.30;46.80;;;;;;4863121;28;46106;-84
2023/07/17 04:37:32;;;;;;;1.30;1.20;;;27.30;46.80;;;;;;4848719;28;45538;-85
2023/07/17 04:39:58;;;;;;;1.53;1.23;;;27.30;46.80;;;;;;4872246;28;45516;-80
2023/07/17 04:42:23;;;;;;;1.33;1.23;;;27.30;46.80;;;;;;4853853;28;45427;-81
2023/07/17 04:44:49;;;;;;;1.92;1.30;;;27.30;46.80;;;;;;4860535;28;44841;-80
2023/07/17 04:47:14;;;;;;;1.50;1.33;;;27.20;46.80;;;;;;4851605;28;45499;-83
2023/07/17 04:49:40;;;;;;;1.40;1.30;;;27.30;46.80;;;;;;4887114;28;46527;-80
2023/07/17 04:52:06;;;;;;;1.33;1.23;;;27.30;46.80;;;;;;4868066;28;45523;-82
2023/07/17 04:54:32;;;;;;;1.75;1.40;;;27.30;46.80;;;;;;4873759;28;44880;-80
2023/07/17 04:56:57;;;;;;;1.60;1.30;;;27.30;46.80;;;;;;4850473;29;45534;-79
2023/07/17 04:59:23;;;;;;;1.45;1.35;;;27.20;46.80;;;;;;4859373;28;45956;-82
2023/07/17 05:01:49;;;;;;;1.70;1.33;;;27.30;46.90;;;;;;4855300;28;45046;-80
2023/07/17 05:04:15;;;;;;;1.63;1.30;;;27.20;46.80;;;;;;4836258;29;45430;-81
2023/07/17 05:06:40;;;;;;;2.28;1.60;;;27.30;46.90;;;;;;4849984;28;45782;-79
2023/07/17 05:09:06;;;;;;;1.90;1.35;;;27.30;46.90;;;;;;4863100;28;47014;-80
2023/07/17 05:11:32;;;;;;;1.90;1.30;;;27.20;46.90;;;;;;4872262;28;45235;-79
2023/07/17 05:13:58;;;;;;;1.50;1.40;;;27.20;46.80;;;;;;4879674;29;45494;-80
2023/07/17 05:16:23;;;;;;;1.92;1.33;;;27.30;46.90;;;;;;4873800;28;45714;-79
2023/07/17 05:18:49;;;;;;;2.33;1.50;;;27.20;46.80;;;;;;4876104;28;46240;-81
2023/07/17 05:21:15;;;;;;;1.53;1.30;;;27.30;46.90;;;;;;4872047;28;44985;-81
2023/07/17 05:23:40;;;;;;;1.50;1.40;;;27.20;46.90;;;;;;4861382;28;45206;-83
2023/07/17 05:26:06;;;;;;;1.75;1.50;;;27.20;46.90;;;;;;4875407;28;45715;-81
2023/07/17 05:28:33;;;;;;;1.58;1.30;;;27.20;46.90;;;;;;4860331;28;47297;-80
2023/07/17 05:30:59;;;;;;;1.90;1.40;;;27.20;46.90;;;;;;4870596;28;44982;-81
2023/07/17 05:33:25;;;;;;;2.00;1.30;;;27.20;46.90;;;;;;4864429;28;45468;-80
2023/07/17 05:35:51;;;;;;;2.20;1.40;;;27.20;46.90;;;;;;4867283;28;45799;-81
2023/07/17 05:38:16;;;;;;;1.70;1.60;;;27.20;46.90;;;;;;4871642;28;45631;-81
2023/07/17 05:40:42;;;;;;;1.70;1.43;;;27.20;46.90;;;;;;4855143;28;44824;-81
2023/07/17 05:43:08;;;;;;;1.50;1.40;;;27.20;46.90;;;;;;4871187;28;45654;-80
2023/07/17 05:45:34;;;;;;;2.17;1.40;;;27.20;46.90;;;;;;4853051;28;45123;-83
2023/07/17 05:47:59;;;;;;;2.08;1.63;;;27.20;47.00;;;;;;4905432;28;46651;-80
2023/07/17 05:50:25;;;;;;;2.00;1.52;;;27.20;46.90;;;;;;4838276;28;45723;-81
2023/07/17 05:52:50;;;;;;;1.63;1.47;;;27.20;46.90;;;;;;4887480;28;45264;-81
2023/07/17 05:55:16;;;;;;;1.40;1.30;;;27.30;47.00;;;;;;4871984;28;45159;-81
2023/07/17 05:57:42;;;;;;;1.63;1.40;;;27.20;46.90;;;;;;4835638;28;46894;-80
2023/07/17 06:00:14;;;;;;;1.50;1.40;;;27.20;46.90;;;;;;4889689;28;45231;-84
2023/07/17 06:02:43;;;;;;;2.20;1.60;;;27.20;46.90;;;;;;4851806;29;45636;-80
2023/07/17 06:05:12;;;;;;;1.67;1.42;;;27.20;47.00;;;;;;4873002;28;45182;-85
2023/07/17 06:07:37;;;;;;;2.30;1.42;;;27.20;47.00;;;;;;4856256;29;47290;-81
2023/07/17 06:10:07;;;;;;;1.92;1.65;;;27.20;47.00;;;;;;4853521;29;45196;-85
2023/07/17 06:12:33;;;;;;;1.63;1.52;;;27.20;46.90;;;;;;4836920;29;45041;-80
2023/07/17 06:14:59;;;;;;;1.90;1.30;;;27.30;47.00;;;;;;4878869;29;45830;-81
2023/07/17 06:17:24;;;;;;;1.77;1.38;;;27.20;46.90;;;;;;4863897;29;45467;-82
2023/07/17 06:19:50;;;;;;;1.67;1.40;;;27.20;47.00;;;;;;4866565;29;45691;-82
2023/07/17 06:22:16;;;;;;;2.90;1.60;;;27.20;47.00;;;;;;4837601;29;45910;-82
2023/07/17 06:24:41;;;;;;;2.00;1.60;;;27.20;47.00;;;;;;4859946;29;45377;-80
2023/07/17 06:27:07;;;;;;;1.50;1.40;;;27.20;46.90;;;;;;4854519;29;47395;-81
2023/07/17 06:29:33;;;;;;;2.45;1.60;;;27.20;47.00;;;;;;4868414;28;45442;-80
2023/07/17 06:31:58;;;;;;;2.50;1.63;;;27.20;46.90;;;;;;4847940;29;45631;-81
2023/07/17 06:34:24;;;;;;;1.90;1.60;;;27.20;47.60;;;;;;4859468;29;46533;-84
2023/07/17 06:36:50;;;;;;;1.40;1.20;;;27.20;46.90;;;;;;4865426;29;45288;-80
2023/07/17 06:39:15;;;;;;;2.13;1.60;;;27.20;46.90;;;;;;4877281;29;45621;-80
2023/07/17 06:41:41;;;;;;;1.70;1.30;;;27.20;47.00;;;;;;4866593;29;45164;-81
2023/07/17 06:44:07;;;;;;;1.97;1.43;;;27.20;47.50;;;;;;4856921;29;45088;-82
2023/07/17 06:46:32;;;;;;;1.50;1.40;;;27.20;46.90;;;;;;4880148;29;46624;-80
2023/07/17 06:48:58;;;;;;;1.63;1.30;;;27.20;47.00;;;;;;4878423;29;46286;-80
2023/07/17 06:51:24;;;;;;;1.83;1.53;;;27.20;47.00;;;;;;4848916;29;45251;-81
2023/07/17 06:53:51;;;;;;;1.90;1.27;;;27.20;47.00;;;;;;4868482;29;45531;-81
2023/07/17 06:56:17;;;;;;;1.70;1.35;;;27.20;47.00;;;;;;4864599;29;46221;-80
2023/07/17 06:58:43;;;;;;;1.40;1.30;;;27.20;46.90;;;;;;4873490;29;44956;-80
2023/07/17 07:01:08;;;;;;;1.50;1.40;;;27.20;46.90;;;;;;4874798;28;45494;-80
2023/07/17 07:03:34;;;;;;;1.60;1.40;;;27.20;47.00;;;;;;4854818;29;45520;-80
2023/07/17 07:06:00;;;;;;;1.40;1.30;;;27.20;46.90;;;;;;4869234;29;45489;-83
2023/07/17 07:08:28;;;;;;;1.50;1.35;;;27.20;46.90;;;;;;4854078;29;45449;-81
2023/07/17 07:10:54;;;;;;;2.38;1.48;;;27.20;46.90;;;;;;4869747;29;45246;-80
2023/07/17 07:13:20;;;;;;;1.67;1.40;;;27.20;46.90;;;;;;4873222;29;45460;-81
2023/07/17 07:15:45;;;;;;;1.38;1.27;;;27.20;47.00;;;;;;4889530;28;45515;-80
2023/07/17 07:18:11;;;;;;;2.35;1.45;;;27.20;47.00;;;;;;4884017;29;45401;-81
2023/07/17 07:20:36;;;;;;;1.60;1.50;;;27.20;46.90;;;;;;4849253;29;45657;-80
2023/07/17 07:23:02;;;;;;;2.43;1.30;;;27.20;46.90;;;;;;4891365;29;45508;-81
2023/07/17 07:25:28;;;;;;;1.77;1.40;;;27.10;46.90;;;;;;4868075;29;45703;-81
2023/07/17 07:27:53;;;;;;;1.85;1.40;;;27.20;46.90;;;;;;4850650;29;45277;-80
2023/07/17 07:30:19;;;;;;;2.83;1.30;;;27.20;46.90;;;;;;4863888;29;45361;-82
2023/07/17 07:32:45;;;;;;;1.70;1.50;;;27.20;46.90;;;;;;4881953;29;45127;-81
2023/07/17 07:35:11;;;;;;;1.87;1.23;;;27.20;46.90;;;;;;4867900;29;46008;-81
2023/07/17 07:37:37;;;;;;;1.70;1.40;;;27.20;47.00;;;;;;4871668;29;45179;-82
2023/07/17 07:40:11;;;;;;;1.50;1.30;;;27.20;46.90;;;;;;4876554;29;45422;-85
2023/07/17 07:42:38;;;;;;;1.60;1.50;;;27.20;46.90;;;;;;4864492;29;45658;-81
2023/07/17 07:45:05;;;;;;;1.90;1.40;;;27.20;46.90;;;;;;4878594;29;46200;-84
2023/07/17 07:47:32;;;;;;;1.90;1.52;;;27.20;47.00;;;;;;4854931;29;46003;-83
2023/07/17 07:49:57;;;;;;;2.00;1.43;;;27.10;46.90;;;;;;4875928;29;45055;-83
2023/07/17 07:52:23;;;;;;;1.33;1.23;;;27.10;46.90;;;;;;4876804;29;45552;-81
2023/07/17 07:54:49;;;;;;;1.90;1.50;;;27.20;46.90;;;;;;4894117;29;45496;-81
2023/07/17 07:57:14;;;;;;;1.70;1.33;;;27.20;46.90;;;;;;4862662;29;45326;-80
2023/07/17 07:59:40;;;;;;;1.87;1.30;;;27.10;46.90;;;;;;4883293;28;45542;-80
2023/07/17 08:02:06;;;;;;;1.95;1.30;;;27.20;46.90;;;;;;4867556;29;45659;-81
2023/07/17 08:04:31;;;;;;;3.30;1.55;;;27.10;46.90;;;;;;4855009;29;46703;-84
2023/07/17 08:06:57;;;;;;;2.03;1.30;;;27.10;46.80;;;;;;4869592;29;45488;-82
2023/07/17 08:09:25;;;;;;;2.47;1.50;;;27.10;46.90;;;;;;4860616;29;60840;-82
2023/07/17 08:11:52;;;;;;;1.67;1.30;;;27.10;46.90;;;;;;4868169;29;45665;-80
2023/07/17 08:14:20;;;;;;;1.73;1.33;;;27.20;46.90;;;;;;4888772;29;46264;-81
2023/07/17 08:16:46;;;;;;;1.92;1.38;;;27.20;46.90;;;;;;4866329;29;45169;-82
2023/07/17 08:19:12;;;;;;;2.25;1.60;;;27.20;46.90;;;;;;4866564;29;45621;-80
2023/07/17 08:21:37;;;;;;;2.00;1.40;;;27.20;46.90;;;;;;4853584;29;45267;-83
2023/07/17 08:24:03;;;;;;;1.60;1.20;;;27.10;46.90;;;;;;4873454;29;45882;-82
2023/07/17 08:26:29;;;;;;;2.30;1.40;;;27.10;46.90;;;;;;4870393;29;44754;-82
2023/07/17 08:28:54;;;;;;;1.85;1.60;;;27.20;46.90;;;;;;4862942;29;45493;-82
2023/07/17 08:31:20;;;;;;;1.93;1.50;;;27.10;46.90;;;;;;4853350;29;45185;-81
2023/07/17 08:33:46;;;;;;;1.57;1.30;;;27.20;46.90;;;;;;4857195;29;47098;-82
2023/07/17 08:36:11;;;;;;;1.97;1.50;;;27.20;46.90;;;;;;4867165;29;46277;-80
2023/07/17 08:38:37;;;;;;;1.67;1.43;;;27.20;47.00;;;;;;4869720;29;45532;-82
2023/07/17 08:41:03;;;;;;;1.50;1.30;;;27.20;46.90;;;;;;4851950;29;44968;-83
2023/07/17 08:43:29;;;;;;;1.95;1.40;;;27.10;46.90;;;;;;4869332;29;45793;-84
2023/07/17 08:45:54;;;;;;;1.80;1.40;;;27.20;46.90;;;;;;4850391;29;46036;-82
2023/07/17 08:48:20;;;;;;;1.70;1.50;;;27.20;46.90;;;;;;4863684;29;45191;-85
2023/07/17 08:50:46;;;;;;;1.80;1.47;;;27.20;46.90;;;;;;4848891;29;45832;-82
2023/07/17 08:53:11;;;;;;;1.60;1.50;;;27.20;46.90;;;;;;4871653;28;45453;-81
2023/07/17 08:55:37;;;;;;;1.57;1.47;;;27.10;46.90;;;;;;4867976;29;45175;-83
2023/07/17 08:58:03;;;;;;;1.70;1.40;;;27.10;46.90;;;;;;4871664;29;45477;-82
2023/07/17 09:00:29;;;;;;;1.67;1.47;;;27.20;46.90;;;;;;4872557;29;45561;-83
2023/07/17 09:02:55;;;;;;;1.65;1.30;;;27.20;46.90;;;;;;4882769;29;45410;-82
2023/07/17 09:05:21;;;;;;;2.00;1.60;;;27.20;46.90;;;;;;4867855;29;45575;-82
2023/07/17 09:07:47;;;;;;;1.52;1.38;;;27.20;46.90;;;;;;4869289;29;45011;-80
2023/07/17 09:10:20;;;;;;;1.67;1.30;;;27.20;46.90;;;;;;4860358;29;45775;-83
2023/07/17 09:12:51;;;;;;;1.92;1.35;;;27.20;46.90;;;;;;4879447;29;45968;-83
2023/07/17 09:15:17;;;;;;;1.95;1.33;;;27.10;46.80;;;;;;4865353;29;45349;-81
2023/07/17 09:17:43;;;;;;;1.60;1.40;;;27.20;46.90;;;;;;4868153;29;45281;-84
2023/07/17 09:20:13;;;;;;;1.60;1.33;;;27.20;46.90;;;;;;4850996;29;45038;-85
2023/07/17 09:22:38;;;;;;;1.90;1.50;;;27.20;46.90;;;;;;4855356;29;47233;-81
2023/07/17 09:25:05;;;;;;;2.00;1.40;;;27.20;46.90;;;;;;4887062;29;45214;-86
2023/07/17 09:27:47;;;;;;;1.83;1.50;;;27.20;46.90;;;;;;4850541;29;45652;-81
2023/07/17 09:30:20;;;;;;;1.85;1.60;;;27.20;46.90;;;;;;4881182;28;44893;-85
2023/07/17 09:32:46;;;;;;;1.40;1.30;;;27.20;46.90;;;;;;4865816;29;45637;-81
2023/07/17 09:35:12;;;;;;;2.15;1.55;;;27.20;46.90;;;;;;4865691;29;45357;-82
2023/07/17 09:37:42;;;;;;;1.93;1.40;;;27.20;46.90;;;;;;4858965;29;45268;-81
2023/07/17 09:40:11;;;;;;;2.30;1.60;;;27.10;46.80;;;;;;4880070;28;44829;-81
2023/07/17 09:42:44;;;;;;;1.52;1.40;;;27.20;46.90;;;;;;4864103;29;45744;-81
2023/07/17 09:45:12;;;;;;;1.90;1.35;;;27.20;46.90;;;;;;4866197;28;44918;-86
2023/07/17 09:47:39;;;;;;;2.15;1.50;;;27.20;46.90;;;;;;4880163;29;45131;-81
2023/07/17 09:50:05;;;;;;;2.00;1.60;;;27.20;46.90;;;;;;4849658;29;45542;-86
2023/07/17 09:52:31;;;;;;;2.20;1.60;;;27.20;46.90;;;;;;4851340;29;46821;-83
2023/07/17 09:55:01;;;;;;;1.73;1.30;;;27.20;46.90;;;;;;4884275;29;45492;-83
2023/07/17 09:57:30;;;;;;;2.63;1.90;;;27.20;46.90;;;;;;4858102;29;44652;-82
2023/07/17 09:59:57;;;;;;;1.50;1.40;;;27.20;46.90;;;;;;4865792;28;45111;-82
2023/07/17 10:02:26;;;;;;;2.20;1.50;;;27.10;46.80;;;;;;4854474;29;45639;-82
2023/07/17 10:04:53;;;;;;;1.75;1.40;;;27.20;46.90;;;;;;4847262;29;45202;-83
2023/07/17 10:07:19;;;;;;;2.30;1.63;;;27.20;46.90;;;;;;4834909;29;45213;-82
2023/07/17 10:09:49;;;;;;;1.90;1.50;;;27.20;46.90;;;;;;4851975;29;45379;-82
2023/07/17 10:12:15;;;;;;;1.50;1.40;;;27.20;46.90;;;;;;4834837;29;47557;-82
2023/07/17 10:14:44;;;;;;;2.30;1.50;;;27.20;46.90;;;;;;4834144;29;45566;-83
2023/07/17 10:17:23;;;;;;;2.45;1.67;;;27.20;47.00;;;;;;4840535;29;45203;-83
2023/07/17 10:19:49;;;;;;;1.58;1.33;;;27.20;46.90;;;;;;4845430;29;45027;-81
2023/07/17 10:22:15;;;;;;;1.80;1.50;;;27.20;46.90;;;;;;4852164;29;45518;-82
2023/07/17 10:24:41;;;;;;;1.95;1.60;;;27.20;46.90;;;;;;4836496;29;45064;-82
2023/07/17 10:27:06;;;;;;;1.85;1.45;;;27.20;46.90;;;;;;4846295;29;45607;-83
2023/07/17 10:29:42;;;;;;;1.83;1.50;;;27.20;46.90;;;;;;4836583;29;45496;-82
2023/07/17 10:32:14;;;;;;;1.40;1.30;;;27.20;46.80;;;;;;4837998;29;48124;-83
2023/07/17 10:34:50;;;;;;;2.55;1.60;;;27.20;46.90;;;;;;4835563;29;44651;-83
2023/07/17 10:37:31;;;;;;;1.88;1.60;;;27.20;46.80;;;;;;4836743;29;44921;-82
2023/07/17 10:40:05;;;;;;;2.17;1.67;;;27.20;46.90;;;;;;4881534;29;45480;-82
2023/07/17 10:42:32;;;;;;;1.92;1.60;;;27.20;46.90;;;;;;4858932;29;47903;-84
2023/07/17 10:45:10;;;;;;;1.92;1.70;;;27.20;46.90;;;;;;4853460;29;45392;-84
2023/07/17 10:47:35;;;;;;;1.95;1.60;;;27.20;46.80;;;;;;4844186;29;45350;-82
2023/07/17 10:50:05;;;;;;;1.92;1.60;;;27.20;46.90;;;;;;4841415;29;45708;-83
2023/07/17 10:52:34;;;;;;;2.10;1.63;;;27.20;46.80;;;;;;4849959;29;46301;-83
2023/07/17 10:55:09;;;;;;;2.08;1.80;;;27.20;46.80;;;;;;4837713;29;45070;-84
2023/07/17 10:57:36;;;;;;;2.10;1.67;;;27.20;46.80;;;;;;4838189;29;45434;-84
2023/07/17 11:00:12;;;;;;;1.70;1.60;;;27.20;46.80;;;;;;4847390;29;45420;-86
2023/07/17 11:02:38;;;;;;;1.88;1.67;;;27.20;46.80;;;;;;4828495;29;46047;-82
2023/07/17 11:05:06;;;;;;;1.90;1.60;;;27.20;46.80;;;;;;4870070;29;45424;-87
2023/07/17 11:07:35;;;;;;;2.38;2.05;;;27.20;46.90;;;;;;4860182;29;45238;-83
2023/07/17 11:10:01;;;;;;;1.83;1.60;;;27.20;46.80;;;;;;4866777;29;45497;-84
2023/07/17 11:12:27;;;;;;;1.90;1.70;;;27.20;46.90;;;;;;4862475;29;47387;-83
2023/07/17 11:14:53;;;;;;;1.83;1.50;;;27.20;46.80;;;;;;4847948;29;45057;-83
2023/07/17 11:17:18;;;;;;;2.07;1.80;;;27.20;46.80;;;;;;4842423;29;45245;-84
2023/07/17 11:19:44;;;;;;;1.90;1.67;;;27.30;46.90;;;;;;4870131;29;44749;-84
2023/07/17 11:22:11;;;;;;;2.50;1.63;;;27.20;46.80;;;;;;4850137;29;45794;-83
2023/07/17 11:24:37;;;;;;;2.08;1.58;;;27.20;46.80;;;;;;4846315;29;45115;-82
2023/07/17 11:27:03;;;;;;;2.28;1.83;;;27.20;46.80;;;;;;4845673;29;45519;-83
2023/07/17 11:29:30;;;;;;;1.92;1.50;;;27.20;46.70;;;;;;4848712;29;45267;-82
2023/07/17 11:31:57;;;;;;;2.27;1.60;;;27.20;46.70;;;;;;4861010;29;45427;-82
2023/07/17 11:34:23;;;;;;;2.22;1.50;;;27.20;46.70;;;;;;4847382;29;44764;-85
2023/07/17 11:36:48;;;;;;;2.72;1.88;;;27.30;46.80;;;;;;4833924;29;45244;-83
2023/07/17 11:39:31;;;;;;;3.50;1.90;;;27.20;46.70;;;;;;4854368;29;45267;-82
2023/07/17 11:41:58;;;;;;;2.23;1.80;;;27.20;46.60;;;;;;4831688;29;47330;-82
2023/07/17 11:44:23;;;;;;;2.50;1.70;;;27.20;46.60;;;;;;4868826;29;44916;-83
2023/07/17 11:46:56;;;;;;;1.97;1.77;;;27.20;46.60;;;;;;4854443;29;45533;-85
2023/07/17 11:49:24;;;;;;;2.77;2.10;;;27.20;46.60;;;;;;4864224;29;45711;-83
2023/07/17 11:51:49;;;;;;;2.55;1.83;;;27.20;46.60;;;;;;4848774;29;46969;-82
2023/07/17 11:54:15;;;;;;;2.30;1.90;;;27.20;46.60;;;;;;4853247;29;44856;-83
2023/07/17 11:56:42;;;;;;;2.10;1.90;;;27.20;46.50;;;;;;4861887;29;45632;-82
2023/07/17 11:59:27;;;;;;;2.28;1.80;;;27.20;46.60;;;;;;4861420;29;45573;-83
2023/07/17 12:01:53;;;;;;;2.03;1.65;;;27.20;46.50;;;;;;4869785;29;47095;-82
2023/07/17 12:04:22;;;;;;;1.75;1.65;;;27.20;46.50;;;;;;4883117;29;45486;-82
2023/07/17 12:06:48;;;;;;;1.88;1.70;;;27.20;46.50;;;;;;4878593;29;45504;-84
2023/07/17 12:09:14;;;;;;;2.20;1.80;;;27.20;46.40;;;;;;4861926;29;45211;-82
2023/07/17 12:11:40;;;;;;;1.73;1.60;;;27.20;46.40;;;;;;4856580;29;45484;-83
2023/07/17 12:14:05;;;;;;;1.90;1.70;;;27.20;46.50;;;;;;4868669;29;45423;-83
2023/07/17 12:16:31;;;;;;;2.67;1.90;;;27.20;46.40;;;;;;4860855;29;45317;-85
2023/07/17 12:18:56;;;;;;;2.23;1.90;;;27.20;46.40;;;;;;4867072;29;45319;-83
2023/07/17 12:21:22;;;;;;;2.30;1.87;;;27.20;46.40;;;;;;4866313;29;47386;-82
2023/07/17 12:23:48;;;;;;;2.70;1.80;;;27.20;46.40;;;;;;4834478;29;45247;-86
2023/07/17 12:26:13;;;;;;;2.53;2.00;;;27.20;46.40;;;;;;4829982;29;45303;-85
2023/07/17 12:28:39;;;;;;;2.00;1.80;;;27.20;46.40;;;;;;4863065;29;46197;-83
2023/07/17 12:31:05;;;;;;;2.40;1.95;;;27.20;46.30;;;;;;4843807;29;47491;-82
2023/07/17 12:33:30;;;;;;;2.22;2.03;;;27.30;46.40;;;;;;4849532;29;45479;-83
2023/07/17 12:35:56;;;;;;;2.13;1.73;;;27.20;46.30;;;;;;4845569;29;45493;-83
2023/07/17 12:38:21;;;;;;;2.40;1.90;;;27.20;46.30;;;;;;4854209;29;45246;-83
2023/07/17 12:40:47;;;;;;;2.80;2.00;;;27.30;46.40;;;;;;4848512;29;47375;-82
2023/07/17 12:43:12;;;;;;;3.03;1.87;;;27.30;46.30;;;;;;4849203;29;45468;-82
2023/07/17 12:45:38;;;;;;;2.10;1.90;;;27.20;46.20;;;;;;4852205;29;45234;-84
2023/07/17 12:48:06;;;;;;;2.80;2.00;;;27.20;46.10;;;;;;4853292;29;45213;-83
2023/07/17 12:50:32;;;;;;;2.50;2.00;;;27.20;46.20;;;;;;4851102;29;48500;-82
2023/07/17 12:52:57;;;;;;;3.07;1.90;;;27.30;46.30;;;;;;4860422;29;45232;-83
2023/07/17 12:55:23;;;;;;;2.10;1.67;;;27.30;46.20;;;;;;4853221;29;44683;-85
2023/07/17 12:57:48;;;;;;;2.27;1.90;;;27.30;46.20;;;;;;4850228;29;45829;-86
2023/07/17 13:00:15;;;;;;;2.50;1.90;;;27.30;46.10;;;;;;4869523;29;45498;-84
2023/07/17 13:02:40;;;;;;;2.47;2.17;;;27.30;46.20;;;;;;4841391;29;45017;-86
2023/07/17 13:05:06;;;;;;;2.43;2.07;;;27.30;46.20;;;;;;4865160;29;45617;-87
2023/07/17 13:07:32;;;;;;;2.72;2.05;;;27.30;46.20;;;;;;4848818;29;45329;-83
2023/07/17 13:09:57;;;;;;;2.20;2.00;;;27.20;46.10;;;;;;4854562;29;46508;-82
2023/07/17 13:12:23;;;;;;;2.30;1.93;;;27.30;46.10;;;;;;4867457;29;45405;-85
2023/07/17 13:14:49;;;;;;;2.40;2.00;;;27.30;46.10;;;;;;4864426;29;45214;-82
2023/07/17 13:17:15;;;;;;;3.15;2.15;;;27.30;46.10;;;;;;4880445;29;45645;-85
2023/07/17 13:19:40;;;;;;;2.30;1.85;;;27.30;46.10;;;;;;4870843;29;45676;-85
2023/07/17 13:22:06;;;;;;;2.43;1.77;;;27.30;46.10;;;;;;4868206;29;44971;-84
2023/07/17 13:24:31;;;;;;;3.10;2.10;;;27.30;46.10;;;;;;4873039;29;44757;-84
2023/07/17 13:26:57;;;;;;;3.10;1.97;;;27.30;46.10;;;;;;4850539;29;45064;-85
2023/07/17 13:29:23;;;;;;;2.10;1.90;;;27.30;46.10;;;;;;4868620;28;45393;-85
2023/07/17 13:31:48;;;;;;;2.67;2.00;;;27.30;46.10;;;;;;4852320;29;45493;-86
2023/07/17 13:34:14;;;;;;;2.20;2.00;;;27.30;46.00;;;;;;4880859;29;45021;-85
2023/07/17 13:36:39;;;;;;;2.58;2.05;;;27.20;46.00;;;;;;4845661;29;45247;-84
2023/07/17 13:39:05;;;;;;;2.20;2.00;;;27.30;46.00;;;;;;4872188;29;45974;-87
2023/07/17 13:41:48;;;;;;;2.25;1.95;;;27.30;46.00;;;;;;4865730;29;44970;-86
2023/07/17 13:44:17;;;;;;;2.95;2.13;;;27.30;46.00;;;;;;4874542;29;45335;-84
2023/07/17 13:46:43;;;;;;;2.78;2.17;;;27.30;46.00;;;;;;4849120;29;45928;-83
2023/07/17 13:49:12;;;;;;;2.73;2.20;;;27.30;46.00;;;;;;4849290;29;47350;-85
2023/07/17 13:51:38;;;;;;;2.78;1.98;;;27.20;45.90;;;;;;4845021;29;45682;-85
2023/07/17 13:54:05;;;;;;;2.40;1.90;;;27.30;45.90;;;;;;4855622;29;45318;-84
2023/07/17 13:56:34;;;;;;;2.15;1.95;;;27.30;45.90;;;;;;4846350;29;45111;-84
2023/07/17 13:59:01;;;;;;;2.70;2.30;;;27.30;45.90;;;;;;4851339;29;47141;-84
2023/07/17 14:01:26;;;;;;;2.20;2.00;;;27.30;45.90;;;;;;4871903;29;45268;-82
2023/07/17 14:03:57;;;;;;;2.40;2.13;;;27.30;45.90;;;;;;4880082;28;45639;-86
2023/07/17 14:06:23;;;;;;;2.33;2.13;;;27.20;45.90;;;;;;4880248;29;45027;-84
2023/07/17 14:08:48;;;;;;;3.53;2.23;;;27.30;45.90;;;;;;4874576;29;47387;-84
2023/07/17 14:11:14;;;;;;;2.53;1.90;;;27.30;45.90;;;;;;4887310;29;45720;-86
2023/07/17 14:13:40;;;;;;;3.43;2.20;;;27.30;45.90;;;;;;4873897;29;45437;-86
2023/07/17 14:16:08;;;;;;;2.30;2.10;;;27.30;45.90;;;;;;4859113;29;45260;-89
2023/07/17 14:18:38;;;;;;;2.80;2.20;;;27.30;45.90;;;;;;4862516;29;45587;-85
2023/07/17 14:21:04;;;;;;;2.90;2.17;;;27.30;45.90;;;;;;4871686;28;45005;-88
2023/07/17 14:23:30;;;;;;;2.97;2.17;;;27.30;45.90;;;;;;4888836;29;44967;-86
2023/07/17 14:25:55;;;;;;;2.37;2.10;;;27.30;45.80;;;;;;4856614;29;45555;-85
2023/07/17 14:28:21;;;;;;;3.20;2.30;;;27.30;45.90;;;;;;4844521;29;47554;-85
2023/07/17 14:30:47;;;;;;;2.50;2.03;;;27.30;45.80;;;;;;4869960;29;45561;-87
2023/07/17 14:33:13;;;;;;;2.45;2.00;;;27.30;45.80;;;;;;4871895;29;45247;-82
2023/07/17 14:35:39;;;;;;;2.20;1.92;;;27.30;46.40;;;;;;4872624;29;44797;-85
2023/07/17 14:38:04;;;;;;;2.88;2.20;;;27.20;45.70;;;;;;4842248;29;47177;-83
2023/07/17 14:40:31;;;;;;;3.00;2.10;;;27.30;45.80;;;;;;4857059;28;45731;-84
2023/07/17 14:42:56;;;;;;;2.30;2.10;;;27.30;45.80;;;;;;4841399;29;45579;-83
2023/07/17 14:45:22;;;;;;;3.55;2.42;;;27.30;45.80;;;;;;4853783;29;46049;-84
2023/07/17 14:47:47;;;;;;;2.42;2.20;;;27.30;45.80;;;;;;4870561;29;46066;-84
2023/07/17 14:50:14;;;;;;;2.28;2.08;;;27.30;45.80;;;;;;4852285;29;45501;-86
2023/07/17 14:52:40;;;;;;;2.17;1.88;;;27.30;45.80;;;;;;4856572;29;45608;-83
2023/07/17 14:57:34;;;;;;;2.72;2.08;;;27.30;45.80;;;;;;4900104;28;45719;-45
2023/07/17 14:59:59;;;;;;;3.10;2.23;;;27.30;45.80;;;;;;4906787;28;46529;-45
2023/07/17 15:02:25;;;;;;;3.63;2.15;;;27.30;45.80;;;;;;4886727;28;45453;-45
2023/07/17 15:04:50;;;;;;;2.80;2.30;;;27.30;45.80;;;;;;4900680;28;45501;-44
2023/07/17 15:07:16;;;;;;;2.97;2.20;;;27.30;45.70;;;;;;4875448;28;45580;-44
2023/07/17 15:09:41;;;;;;;4.30;2.30;;;27.30;45.70;;;;;;4904033;28;45422;-45
2023/07/17 15:12:07;;;;;;;3.40;2.60;;;27.30;45.70;;;;;;4895289;28;47146;-46
2023/07/17 15:14:34;;;;;;;2.55;2.17;;;27.30;45.70;;;;;;4907141;28;45867;-44
2023/07/17 15:16:59;;;;;;;2.55;2.05;;;27.30;45.70;;;;;;4883501;28;46082;-45
2023/07/17 15:19:25;;;;;;;3.20;2.20;;;27.30;45.70;;;;;;4887130;28;45740;-46
2023/07/17 15:24:18;;;;;;;2.70;2.25;;;27.30;45.70;;;;;;4882614;28;46037;-45
2023/07/17 15:26:44;;;;;;;2.70;2.38;;;27.30;45.70;;;;;;4895005;28;45880;-45
2023/07/17 15:29:09;;;;;;;2.50;2.30;;;27.30;45.60;;;;;;4902079;28;45266;-45
2023/07/17 15:31:35;;;;;;;2.97;2.40;;;27.30;45.60;;;;;;4860728;28;46233;-46
2023/07/17 15:34:01;;;;;;;2.53;2.33;;;27.30;45.70;;;;;;4866305;28;46400;-45
2023/07/17 15:36:26;;;;;;;3.03;2.33;;;27.30;45.70;;;;;;4841829;28;45160;-45
2023/07/17 15:38:52;;;;;;;3.47;2.50;;;27.30;45.60;;;;;;4882174;28;45222;-45
2023/07/17 15:41:17;;;;;;;3.03;2.38;;;27.30;45.60;;;;;;4849383;28;46332;-44
2023/07/17 15:43:43;;;;;;;2.80;2.10;;;27.30;45.60;;;;;;4846942;28;45438;-46
2023/07/17 15:46:08;;;;;;;3.40;2.50;;;27.30;45.60;;;;;;4859612;28;45619;-46
2023/07/17 15:48:34;;;;;;;3.20;2.17;;;27.30;45.60;;;;;;4869484;28;45486;-44
2023/07/17 15:50:59;;;;;;;3.00;2.47;;;27.30;45.60;;;;;;4866991;28;45102;-45